Saint Charles, Michigan
Current Conditions -  °F | °C
As of 7:53 PM on Wednesday 26 Nov 2014 (Local Time) from KMBS Reporting Station
Overcast Overcast  
Wind Chill: -6°   Ceiling: 4100
Heat Index: -1°   Visibility: 10mi
Dew Point: -5°   Wind: 9mph
Humidity: 75%   Direction: 350°N
Pressure: 30.12"   Gusts: NA
Location:  43.3°N, 84.14°W
Report Text: KMBS 270053Z 35008KT 10SM OVC041 M01/M05 A3012 RMK AO2 SLP209 T10111050
Loading
Personal Weather Stations






























Interactive Weather Map New forecast layout! Learn more

10-Day Weather Forecast

Advertisements
Track Severe Weather on mobile